createdAt,value
2022-11-20T00:00:17.009Z,86.16
2022-11-20T00:02:43.550Z,85.97
2022-11-20T00:05:10.076Z,85.81
2022-11-20T00:07:36.721Z,86.27
2022-11-20T00:10:03.775Z,86.41
2022-11-20T00:12:30.267Z,86.30
2022-11-20T00:14:56.771Z,86.22
2022-11-20T00:17:23.962Z,86.21
2022-11-20T00:19:50.491Z,86.48
2022-11-20T00:22:17.032Z,86.73
2022-11-20T00:24:43.615Z,86.62
2022-11-20T00:27:10.137Z,86.66
2022-11-20T00:29:36.668Z,86.37
2022-11-20T00:32:03.311Z,86.43
2022-11-20T00:34:29.855Z,86.47
2022-11-20T00:36:56.534Z,85.72
2022-11-20T00:39:23.462Z,85.85
2022-11-20T00:41:50.184Z,86.26
2022-11-20T00:44:16.675Z,86.60
2022-11-20T00:46:43.236Z,86.45
2022-11-20T00:49:09.756Z,86.53
2022-11-20T00:51:36.861Z,86.25
2022-11-20T00:54:03.605Z,85.52
2022-11-20T00:56:30.204Z,85.65
2022-11-20T00:59:00.598Z,85.69
2022-11-20T01:01:30.324Z,85.83
2022-11-20T01:03:59.434Z,86.03
2022-11-20T01:06:28.160Z,86.04
2022-11-20T01:08:58.074Z,86.29
2022-11-20T01:11:29.841Z,86.28
2022-11-20T01:13:58.157Z,86.49
2022-11-20T01:16:32.916Z,86.33
2022-11-20T01:19:02.381Z,86.31
2022-11-20T01:21:34.244Z,86.47
2022-11-20T01:24:01.754Z,86.87
2022-11-20T01:26:31.523Z,86.79
2022-11-20T01:28:58.789Z,87.04
2022-11-20T01:31:29.185Z,87.15
2022-11-20T01:33:58.747Z,87.06
2022-11-20T01:36:28.588Z,86.68
2022-11-20T01:38:57.649Z,86.44
2022-11-20T01:41:44.489Z,86.43
2022-11-20T01:44:13.760Z,86.26
2022-11-20T01:46:43.401Z,86.56
2022-11-20T01:49:23.826Z,86.55
2022-11-20T01:52:22.382Z,86.48
2022-11-20T01:55:00.641Z,86.55
2022-11-20T01:57:30.742Z,86.58
2022-11-20T02:00:05.426Z,87.04
2022-11-20T02:02:32.790Z,87.47
2022-11-20T02:05:05.662Z,87.71
2022-11-20T02:07:32.585Z,87.57
2022-11-20T02:09:59.557Z,87.87
2022-11-20T02:12:45.189Z,88.23
2022-11-20T02:15:11.866Z,88.47
2022-11-20T02:17:38.770Z,88.56
2022-11-20T02:20:06.644Z,88.72
2022-11-20T02:22:40.801Z,88.80
2022-11-20T02:25:09.429Z,88.71
2022-11-20T02:27:36.096Z,88.54
2022-11-20T02:30:05.690Z,88.70
2022-11-20T02:32:35.265Z,88.60
2022-11-20T02:35:28.228Z,88.76
2022-11-20T02:37:57.265Z,88.79
2022-11-20T02:40:24.124Z,88.59
2022-11-20T02:42:57.482Z,89.03
2022-11-20T02:45:25.361Z,89.40
2022-11-20T02:47:52.630Z,89.85
2022-11-20T02:50:19.480Z,89.31
2022-11-20T02:52:46.357Z,89.60
2022-11-20T02:55:12.884Z,89.80
2022-11-20T02:57:39.493Z,90.31
2022-11-20T03:00:07.782Z,90.30
2022-11-20T03:02:35.204Z,90.64
2022-11-20T03:05:02.000Z,90.54
2022-11-20T03:07:28.630Z,90.78
2022-11-20T03:09:55.241Z,91.05
2022-11-20T03:12:21.808Z,91.13
2022-11-20T03:14:52.780Z,91.29
2022-11-20T03:17:20.054Z,91.43
2022-11-20T03:19:46.744Z,91.47
2022-11-20T03:22:13.318Z,91.65
2022-11-20T03:24:39.815Z,91.49
2022-11-20T03:27:06.384Z,91.22
2022-11-20T03:29:33.389Z,91.10
2022-11-20T03:31:59.966Z,90.66
2022-11-20T03:34:26.504Z,90.60
2022-11-20T03:36:53.033Z,90.60
2022-11-20T03:39:19.928Z,90.64
2022-11-20T03:41:46.694Z,90.41
2022-11-20T03:44:13.429Z,90.46
2022-11-20T03:46:40.164Z,90.36
2022-11-20T03:49:06.984Z,90.50
2022-11-20T03:51:36.167Z,90.54
2022-11-20T03:54:07.496Z,90.51
2022-11-20T03:56:36.797Z,90.61
2022-11-20T03:59:04.540Z,90.52
2022-11-20T04:01:33.544Z,90.35
2022-11-20T04:04:00.277Z,90.50
2022-11-20T04:06:29.234Z,90.53
2022-11-20T04:08:57.034Z,90.49
2022-11-20T04:11:25.573Z,90.61
2022-11-20T04:13:55.023Z,90.54
2022-11-20T04:16:22.961Z,90.54
2022-11-20T04:18:54.094Z,90.50
2022-11-20T04:21:20.860Z,90.62
2022-11-20T04:23:47.447Z,90.72
2022-11-20T04:26:13.990Z,90.99
2022-11-20T04:28:40.593Z,91.25
2022-11-20T04:31:09.212Z,91.42
2022-11-20T04:33:36.817Z,91.64
2022-11-20T04:36:10.778Z,91.55
2022-11-20T04:38:37.530Z,91.52
2022-11-20T04:41:06.572Z,91.71
2022-11-20T04:43:34.404Z,91.85
2022-11-20T04:46:02.003Z,92.22
2022-11-20T04:48:30.052Z,92.52
2022-11-20T04:50:57.435Z,92.88
2022-11-20T04:53:25.052Z,93.06
2022-11-20T04:55:51.613Z,93.08
2022-11-20T04:58:18.244Z,93.11
2022-11-20T05:00:44.835Z,93.17
2022-11-20T05:03:11.490Z,93.25
2022-11-20T05:05:38.008Z,93.46
2022-11-20T05:08:04.795Z,93.45
2022-11-20T05:10:31.322Z,93.52
2022-11-20T05:12:58.335Z,93.65
2022-11-20T05:15:25.271Z,93.90
2022-11-20T05:17:53.279Z,94.14
2022-11-20T05:20:20.166Z,94.21
2022-11-20T05:22:47.172Z,94.24
2022-11-20T05:25:13.810Z,94.44
2022-11-20T05:27:40.437Z,94.37
2022-11-20T05:30:07.543Z,94.43
2022-11-20T05:32:34.090Z,94.15
2022-11-20T05:35:00.620Z,94.06
2022-11-20T05:37:27.160Z,94.04
2022-11-20T05:39:54.164Z,93.74
2022-11-20T05:42:32.763Z,93.31
2022-11-20T05:45:00.711Z,93.32
2022-11-20T05:47:28.895Z,93.53
2022-11-20T05:49:55.567Z,93.55
2022-11-20T05:52:22.276Z,93.55
2022-11-20T05:54:49.013Z,93.43
2022-11-20T05:57:15.643Z,93.41
2022-11-20T05:59:42.427Z,93.62
2022-11-20T06:02:08.951Z,93.71
2022-11-20T06:04:35.523Z,93.70
2022-11-20T06:07:02.055Z,93.74
2022-11-20T06:09:28.644Z,93.66
2022-11-20T06:11:55.260Z,93.59
2022-11-20T06:14:21.802Z,93.74
2022-11-20T06:16:48.343Z,93.81
2022-11-20T06:19:15.939Z,93.75
2022-11-20T06:21:42.567Z,93.57
2022-11-20T06:24:11.425Z,93.55
2022-11-20T06:26:38.073Z,93.55
2022-11-20T06:29:04.593Z,93.56
2022-11-20T06:31:33.744Z,93.54
2022-11-20T06:34:02.243Z,93.65
2022-11-20T06:36:28.837Z,93.83
2022-11-20T06:38:55.380Z,93.90
2022-11-20T06:41:23.189Z,93.90
2022-11-20T06:43:50.178Z,93.63
2022-11-20T06:46:20.355Z,93.66
2022-11-20T06:48:50.906Z,93.72
2022-11-20T06:51:18.013Z,93.80
2022-11-20T06:53:44.547Z,93.97
2022-11-20T06:56:11.137Z,94.11
2022-11-20T06:58:38.205Z,94.48
2022-11-20T07:01:13.478Z,94.95
2022-11-20T07:03:41.249Z,95.33
2022-11-20T07:06:09.195Z,95.31
2022-11-20T07:08:36.119Z,95.00
2022-11-20T07:11:05.928Z,95.05
2022-11-20T07:13:32.856Z,94.97
2022-11-20T07:16:04.334Z,94.87
2022-11-20T07:18:31.150Z,94.80
2022-11-20T07:21:01.974Z,94.10
2022-11-20T07:23:28.669Z,93.87
2022-11-20T07:25:55.198Z,93.18
2022-11-20T07:28:21.739Z,92.65
2022-11-20T07:30:52.663Z,92.69
2022-11-20T07:33:19.388Z,92.82
2022-11-20T07:35:46.186Z,93.20
2022-11-20T07:38:12.798Z,92.37
2022-11-20T07:40:39.465Z,92.12
2022-11-20T07:43:06.032Z,92.73
2022-11-20T07:45:32.779Z,91.42
2022-11-20T07:47:59.303Z,90.38
2022-11-20T07:50:25.978Z,89.62
2022-11-20T07:52:53.473Z,90.54
2022-11-20T07:55:19.982Z,91.07
2022-11-20T07:57:46.486Z,91.36
2022-11-20T08:00:33.390Z,91.14
2022-11-20T08:03:01.033Z,91.13
2022-11-20T08:05:28.755Z,91.15
2022-11-20T08:07:57.626Z,91.16
2022-11-20T08:10:25.531Z,90.75
2022-11-20T08:13:12.617Z,90.26
2022-11-20T08:15:41.609Z,90.00
2022-11-20T08:21:05.087Z,90.20
2022-11-20T08:23:32.186Z,90.55
2022-11-20T08:25:58.710Z,90.20
2022-11-20T08:28:25.206Z,89.70
2022-11-20T08:30:52.058Z,89.28
2022-11-20T08:33:19.145Z,88.35
2022-11-20T08:35:45.786Z,88.27
2022-11-20T08:38:12.504Z,88.51
2022-11-20T08:40:39.051Z,89.03
2022-11-20T08:43:06.098Z,89.39
2022-11-20T08:45:34.918Z,89.47
2022-11-20T08:48:04.682Z,89.61
2022-11-20T08:50:33.467Z,89.37
2022-11-20T08:53:06.603Z,88.68
2022-11-20T08:55:36.392Z,89.28
2022-11-20T08:58:06.842Z,89.35
2022-11-20T09:00:34.644Z,88.38
2022-11-20T09:03:02.297Z,88.56
2022-11-20T09:05:29.092Z,88.70
2022-11-20T09:07:59.366Z,88.95
2022-11-20T09:10:29.858Z,89.34
2022-11-20T09:12:57.149Z,89.59
2022-11-20T09:15:25.136Z,89.83
2022-11-20T09:17:56.487Z,89.78
2022-11-20T09:20:23.486Z,89.82
2022-11-20T09:22:50.300Z,89.98
2022-11-20T09:25:17.295Z,89.97
2022-11-20T09:27:45.149Z,89.78
2022-11-20T09:30:12.812Z,89.27
2022-11-20T09:32:43.934Z,89.31
2022-11-20T09:35:11.669Z,89.29
2022-11-20T09:37:38.830Z,89.58
2022-11-20T09:40:06.119Z,89.57
2022-11-20T09:42:38.646Z,89.76
2022-11-20T09:45:20.301Z,90.08
2022-11-20T09:48:05.421Z,89.89
2022-11-20T09:50:42.653Z,90.36
2022-11-20T09:53:41.942Z,91.04
2022-11-20T09:56:10.506Z,91.23
2022-11-20T09:59:02.619Z,91.46
2022-11-20T10:01:37.027Z,91.87
2022-11-20T10:04:22.264Z,91.54
2022-11-20T10:10:01.410Z,91.24
2022-11-20T10:12:30.914Z,90.77
2022-11-20T10:15:21.305Z,90.80
2022-11-20T10:18:00.602Z,90.65
2022-11-20T10:20:47.516Z,90.54
2022-11-20T10:23:51.072Z,90.91
2022-11-20T10:26:41.087Z,90.88
2022-11-20T10:29:18.013Z,90.76
2022-11-20T10:31:48.815Z,89.84
2022-11-20T10:34:35.018Z,90.36
2022-11-20T10:37:10.660Z,89.95
2022-11-20T10:39:41.459Z,89.83
2022-11-20T10:42:18.472Z,90.24
2022-11-20T10:45:06.101Z,91.11
2022-11-20T10:47:33.806Z,91.90
2022-11-20T10:50:06.926Z,91.95
2022-11-20T10:52:48.487Z,91.93
2022-11-20T10:55:41.856Z,91.40
2022-11-20T10:58:15.625Z,91.66
2022-11-20T11:00:43.248Z,91.29
2022-11-20T11:03:28.440Z,92.05
2022-11-20T11:06:09.111Z,92.41
2022-11-20T11:08:39.841Z,92.13
2022-11-20T11:11:24.970Z,91.93
2022-11-20T11:13:51.834Z,91.87
2022-11-20T11:16:26.630Z,92.36
2022-11-20T11:19:05.206Z,92.53
2022-11-20T11:21:31.886Z,92.54
2022-11-20T11:24:26.841Z,92.64
2022-11-20T11:27:00.671Z,92.61
2022-11-20T11:29:30.380Z,92.84
2022-11-20T11:32:12.458Z,93.46
2022-11-20T11:34:39.075Z,93.50
2022-11-20T11:37:11.312Z,92.89
2022-11-20T11:39:42.391Z,93.30
2022-11-20T11:42:15.698Z,93.13
2022-11-20T11:45:05.195Z,93.48
2022-11-20T11:47:34.516Z,93.39
2022-11-20T11:50:10.157Z,93.46
2022-11-20T11:52:56.114Z,93.17
2022-11-20T11:55:28.489Z,92.89
2022-11-20T11:57:58.106Z,93.22
2022-11-20T12:00:24.636Z,92.40
2022-11-20T12:03:14.610Z,92.57
2022-11-20T12:06:09.730Z,93.10
2022-11-20T12:08:47.814Z,93.19
2022-11-20T12:11:24.273Z,92.99
2022-11-20T12:13:59.365Z,93.15
2022-11-20T12:16:26.134Z,93.05
2022-11-20T12:18:53.810Z,93.10
2022-11-20T12:21:29.359Z,92.79
2022-11-20T12:24:10.916Z,92.74
2022-11-20T12:27:14.763Z,92.75
2022-11-20T12:30:04.070Z,92.99
2022-11-20T12:32:33.773Z,92.45
2022-11-20T12:35:17.254Z,92.43
2022-11-20T12:37:53.327Z,92.64
2022-11-20T12:40:49.303Z,92.47
2022-11-20T12:43:48.401Z,92.56
2022-11-20T12:46:33.426Z,93.03
2022-11-20T12:49:02.748Z,93.46
2022-11-20T12:52:00.522Z,93.19
2022-11-20T12:55:15.571Z,93.02
2022-11-20T12:57:44.932Z,93.48
2022-11-20T13:00:17.887Z,93.52
2022-11-20T13:03:06.291Z,93.63
2022-11-20T13:05:51.196Z,93.88
2022-11-20T13:08:59.587Z,94.29
2022-11-20T13:11:41.287Z,93.93
2022-11-20T13:14:26.490Z,94.66
2022-11-20T13:17:06.376Z,94.99
2022-11-20T13:19:34.029Z,95.06
2022-11-20T13:22:01.084Z,94.55
2022-11-20T13:24:31.832Z,95.12
2022-11-20T13:27:13.380Z,95.05
2022-11-20T13:29:44.565Z,95.35
2022-11-20T13:32:20.948Z,95.75
2022-11-20T13:35:05.435Z,95.93
2022-11-20T13:37:38.245Z,95.80
2022-11-20T13:40:11.492Z,95.96
2022-11-20T13:42:46.498Z,96.02
2022-11-20T13:45:31.397Z,95.66
2022-11-20T13:48:01.195Z,95.82
2022-11-20T13:50:36.846Z,95.77
2022-11-20T13:53:26.969Z,95.83
2022-11-20T13:56:28.156Z,95.81
2022-11-20T13:58:54.613Z,95.92
2022-11-20T14:01:26.640Z,95.98
2022-11-20T14:04:09.869Z,96.11
2022-11-20T14:06:49.724Z,96.06
2022-11-20T14:09:27.682Z,96.33
2022-11-20T14:11:54.333Z,96.56
2022-11-20T14:14:24.026Z,96.78
2022-11-20T14:16:51.551Z,96.76
2022-11-20T14:19:20.992Z,96.93
2022-11-20T14:21:48.809Z,97.08
2022-11-20T14:24:20.619Z,97.07
2022-11-20T14:26:48.496Z,97.37
2022-11-20T14:29:20.811Z,97.44
2022-11-20T14:31:54.120Z,97.59
2022-11-20T14:34:29.988Z,97.74
2022-11-20T14:37:01.992Z,97.53
2022-11-20T14:39:42.770Z,97.61
2022-11-20T14:42:21.581Z,97.63
2022-11-20T14:44:49.710Z,97.90
2022-11-20T14:47:27.518Z,97.96
2022-11-20T14:49:56.555Z,97.92
2022-11-20T14:52:28.319Z,97.95
2022-11-20T14:54:57.614Z,97.96
2022-11-20T14:57:38.988Z,97.99
2022-11-20T15:00:24.427Z,97.97
2022-11-20T15:02:54.112Z,98.22
2022-11-20T15:05:23.873Z,98.08
2022-11-20T15:08:09.396Z,98.20
2022-11-20T15:10:36.293Z,98.36
2022-11-20T15:13:13.201Z,98.57
2022-11-20T15:15:45.612Z,98.73
2022-11-20T15:18:14.897Z,98.79
2022-11-20T15:20:42.555Z,98.80
2022-11-20T15:23:14.215Z,98.78
2022-11-20T15:25:43.388Z,98.87
2022-11-20T15:28:35.288Z,98.94
2022-11-20T15:31:03.387Z,98.97
2022-11-20T15:33:31.021Z,99.02
2022-11-20T15:35:58.060Z,98.82
2022-11-20T15:38:24.698Z,98.95
2022-11-20T15:40:51.254Z,99.00
2022-11-20T15:43:17.785Z,99.11
2022-11-20T15:45:50.561Z,99.31
2022-11-20T15:48:30.110Z,99.37
2022-11-20T15:51:08.654Z,99.46
2022-11-20T15:53:35.218Z,99.53
2022-11-20T15:56:02.421Z,99.64
2022-11-20T15:58:28.971Z,99.61
2022-11-20T16:00:55.799Z,99.73
2022-11-20T16:03:22.469Z,99.78
2022-11-20T16:05:49.122Z,99.93
2022-11-20T16:08:15.808Z,99.92
2022-11-20T16:10:42.488Z,99.80
2022-11-20T16:13:36.554Z,99.87
2022-11-20T16:16:10.051Z,99.81
2022-11-20T16:18:36.665Z,99.64
2022-11-20T16:21:03.527Z,99.74
2022-11-20T16:23:30.239Z,99.79
2022-11-20T16:25:57.100Z,99.87
2022-11-20T16:28:23.766Z,99.94
2022-11-20T16:30:50.290Z,99.85
2022-11-20T16:33:18.439Z,99.99
2022-11-20T16:35:45.045Z,99.99
2022-11-20T16:38:11.622Z,99.99
2022-11-20T16:40:38.187Z,99.99
2022-11-20T16:43:10.636Z,99.99
2022-11-20T16:45:45.382Z,99.99
2022-11-20T16:48:16.946Z,99.99
2022-11-20T16:50:53.788Z,99.99
2022-11-20T16:53:21.971Z,99.97
2022-11-20T16:55:48.889Z,99.51
2022-11-20T16:58:15.829Z,99.22
2022-11-20T17:00:46.891Z,99.16
2022-11-20T17:03:18.020Z,99.11
2022-11-20T17:05:44.538Z,98.94
2022-11-20T17:08:11.048Z,99.01
2022-11-20T17:10:37.670Z,99.08
2022-11-20T17:13:04.225Z,99.14
2022-11-20T17:15:31.450Z,99.14
2022-11-20T17:17:58.026Z,99.07
2022-11-20T17:20:24.560Z,98.43
2022-11-20T17:22:51.080Z,98.01
2022-11-20T17:25:17.672Z,97.99
2022-11-20T17:27:44.232Z,98.32
2022-11-20T17:30:10.898Z,98.79
2022-11-20T17:32:37.529Z,98.82
2022-11-20T17:35:05.187Z,98.63
2022-11-20T17:37:31.742Z,98.32
2022-11-20T17:39:58.360Z,98.47
2022-11-20T17:42:27.822Z,98.53
2022-11-20T17:44:54.431Z,98.56
2022-11-20T17:47:20.967Z,98.23
2022-11-20T17:49:47.457Z,98.43
2022-11-20T17:52:13.959Z,98.22
2022-11-20T17:54:40.470Z,98.14
2022-11-20T17:57:27.206Z,97.59
2022-11-20T17:59:53.847Z,97.54
2022-11-20T18:02:20.403Z,97.52
2022-11-20T18:04:46.922Z,97.65
2022-11-20T18:07:13.590Z,97.97
2022-11-20T18:09:40.393Z,97.54
2022-11-20T18:12:07.109Z,97.47
2022-11-20T18:14:34.685Z,97.74
2022-11-20T18:17:04.413Z,98.19
2022-11-20T18:20:21.365Z,98.24
2022-11-20T18:22:38.189Z,98.17
2022-11-20T18:25:05.280Z,97.71
2022-11-20T18:27:31.904Z,97.41
2022-11-20T18:29:58.447Z,97.27
2022-11-20T18:32:25.043Z,97.03
2022-11-20T18:34:51.623Z,97.10
2022-11-20T18:37:18.306Z,96.99
2022-11-20T18:39:45.026Z,96.83
2022-11-20T18:42:35.289Z,96.99
2022-11-20T18:45:04.513Z,97.13
2022-11-20T18:47:34.122Z,97.08
2022-11-20T18:50:01.903Z,97.76
2022-11-20T18:52:34.173Z,97.95
2022-11-20T18:55:05.565Z,98.19
2022-11-20T18:57:32.773Z,97.63
2022-11-20T19:00:08.327Z,97.25
2022-11-20T19:02:41.044Z,97.43
2022-11-20T19:05:10.582Z,97.75
2022-11-20T19:07:37.146Z,97.76
2022-11-20T19:10:04.603Z,97.16
2022-11-20T19:12:31.498Z,97.33
2022-11-20T19:14:58.146Z,97.11
2022-11-20T19:17:24.696Z,96.87
2022-11-20T19:19:55.296Z,96.50
2022-11-20T19:22:22.190Z,96.24
2022-11-20T19:24:49.281Z,96.02
2022-11-20T19:27:15.834Z,95.95
2022-11-20T19:29:42.473Z,96.04
2022-11-20T19:32:09.069Z,96.14
2022-11-20T19:34:35.596Z,96.32
2022-11-20T19:37:02.339Z,96.37
2022-11-20T19:39:28.937Z,96.53
2022-11-20T19:41:55.668Z,96.33
2022-11-20T19:44:22.479Z,96.23
2022-11-20T19:46:50.864Z,96.27
2022-11-20T19:49:17.472Z,96.13
2022-11-20T19:51:46.997Z,96.34
2022-11-20T19:54:14.334Z,96.40
2022-11-20T19:56:41.341Z,96.12
2022-11-20T19:59:07.919Z,96.00
2022-11-20T20:01:35.388Z,96.06
2022-11-20T20:04:03.662Z,96.05
2022-11-20T20:06:31.411Z,95.89
2022-11-20T20:09:07.293Z,95.89
2022-11-20T20:11:34.884Z,96.30
2022-11-20T20:14:06.474Z,95.80
2022-11-20T20:16:34.394Z,95.28
2022-11-20T20:19:02.792Z,94.69
2022-11-20T20:21:30.627Z,95.00
2022-11-20T20:23:58.413Z,94.59
2022-11-20T20:26:27.027Z,95.05
2022-11-20T20:28:54.149Z,95.69
2022-11-20T20:31:24.885Z,96.12
2022-11-20T20:33:51.705Z,96.63
2022-11-20T20:36:20.241Z,97.18
2022-11-20T20:38:47.214Z,97.40
2022-11-20T20:41:14.840Z,97.45
2022-11-20T20:44:00.238Z,97.59
2022-11-20T20:46:26.901Z,97.71
2022-11-20T20:49:12.287Z,97.39
2022-11-20T20:51:38.836Z,97.58
2022-11-20T20:54:05.467Z,97.90
2022-11-20T20:56:33.166Z,97.92
2022-11-20T20:58:59.640Z,97.84
2022-11-20T21:01:28.803Z,97.68
2022-11-20T21:03:56.725Z,97.68
2022-11-20T21:06:23.496Z,97.52
2022-11-20T21:08:50.626Z,97.60
2022-11-20T21:11:19.237Z,97.71
2022-11-20T21:13:47.775Z,97.78
2022-11-20T21:16:15.817Z,98.06
2022-11-20T21:18:42.677Z,98.02
2022-11-20T21:21:31.825Z,97.89
2022-11-20T21:23:58.426Z,97.78
2022-11-20T21:26:25.125Z,97.90
2022-11-20T21:28:51.934Z,97.93
2022-11-20T21:31:25.086Z,97.98
2022-11-20T21:33:53.781Z,98.04
2022-11-20T21:36:22.372Z,97.83
2022-11-20T21:38:51.638Z,97.49
2022-11-20T21:41:18.238Z,97.32
2022-11-20T21:43:44.857Z,97.10
2022-11-20T21:46:14.110Z,97.09
2022-11-20T21:48:42.674Z,97.21
2022-11-20T21:51:17.591Z,97.29
2022-11-20T21:53:45.795Z,97.14
2022-11-20T21:56:18.980Z,97.08
2022-11-20T21:58:47.149Z,97.17
2022-11-20T22:01:26.736Z,97.60
2022-11-20T22:03:58.563Z,97.70
2022-11-20T22:06:27.063Z,98.01
2022-11-20T22:08:53.643Z,98.16
2022-11-20T22:11:21.439Z,98.15
2022-11-20T22:14:07.180Z,98.25
2022-11-20T22:16:35.383Z,98.47
2022-11-20T22:19:01.939Z,98.61
2022-11-20T22:21:30.585Z,98.72
2022-11-20T22:23:57.970Z,98.32
2022-11-20T22:26:27.348Z,98.28
2022-11-20T22:28:56.126Z,98.29
2022-11-20T22:31:27.887Z,98.44
2022-11-20T22:33:54.685Z,98.00
2022-11-20T22:36:23.792Z,97.93
2022-11-20T22:38:51.107Z,97.97
2022-11-20T22:41:27.458Z,97.85
2022-11-20T22:44:03.296Z,97.72
2022-11-20T22:46:33.103Z,97.78
2022-11-20T22:49:02.250Z,97.91
2022-11-20T22:51:31.973Z,97.97
2022-11-20T22:53:58.970Z,98.02
2022-11-20T22:56:25.634Z,97.99
2022-11-20T22:58:53.833Z,98.08
